Corapeake, North Carolina
Current Conditions -  °F | °C
As of 10:15 PM on Thursday 27 Nov 2014 (Local Time) from KCPK Reporting Station
Overcast Overcast  
Wind Chill: 41°   Ceiling: 5000
Heat Index: 41°   Visibility: 10mi
Dew Point: 39°   Wind: 3mph
Humidity: 93%   Direction: 300°WNW
Pressure: 30.19"   Gusts: NA
Location:  36.53°N, 76.58°W
Report Text: KCPK 280315Z AUTO 30003KT 10SM BKN050 OVC055 05/04 A3019 RMK AO2
Loading
Personal Weather Stations






























Interactive Weather Map New forecast layout! Learn more

10-Day Weather Forecast

Advertisements
Track Severe Weather on mobile